createdAt,value
2023-04-29T00:02:12.460Z,28.50
2023-04-29T00:04:41.330Z,28.60
2023-04-29T00:07:10.437Z,28.60
2023-04-29T00:09:39.631Z,28.60
2023-04-29T00:12:08.303Z,28.70
2023-04-29T00:14:37.016Z,28.80
2023-04-29T00:17:05.910Z,28.80
2023-04-29T00:19:34.685Z,28.90
2023-04-29T00:22:03.571Z,28.90
2023-04-29T00:24:32.140Z,29.00
2023-04-29T00:27:00.836Z,29.00
2023-04-29T00:29:29.739Z,29.10
2023-04-29T00:32:01.306Z,29.20
2023-04-29T00:34:29.967Z,29.20
2023-04-29T00:36:58.606Z,29.30
2023-04-29T00:39:29.702Z,29.30
2023-04-29T00:41:58.390Z,29.30
2023-04-29T00:44:27.113Z,29.40
2023-04-29T00:46:55.802Z,29.50
2023-04-29T00:49:24.529Z,29.50
2023-04-29T00:51:53.384Z,29.60
2023-04-29T00:54:22.700Z,29.60
2023-04-29T00:56:52.405Z,29.70
2023-04-29T00:59:21.839Z,29.80
2023-04-29T01:01:50.537Z,29.80
2023-04-29T01:04:19.728Z,29.90
2023-04-29T01:07:17.938Z,30.00
2023-04-29T01:10:02.350Z,30.00
2023-04-29T01:13:01.599Z,30.10
2023-04-29T01:15:39.358Z,30.10
2023-04-29T01:18:21.647Z,30.20
2023-04-29T01:20:50.916Z,30.30
2023-04-29T01:23:19.546Z,30.40
2023-04-29T01:25:49.875Z,30.40
2023-04-29T01:28:47.662Z,30.50
2023-04-29T01:31:40.121Z,30.60
2023-04-29T01:34:35.433Z,30.60
2023-04-29T01:37:24.145Z,30.70
2023-04-29T01:40:20.307Z,30.80
2023-04-29T01:43:12.762Z,30.80
2023-04-29T01:45:42.868Z,30.90
2023-04-29T01:48:11.692Z,31.00
2023-04-29T01:50:40.411Z,31.00
2023-04-29T01:53:09.273Z,31.10
2023-04-29T01:55:38.054Z,31.10
2023-04-29T01:58:06.690Z,31.20
2023-04-29T02:00:35.436Z,31.20
2023-04-29T02:03:04.516Z,31.30
2023-04-29T02:05:35.023Z,31.40
2023-04-29T02:08:04.203Z,31.40
2023-04-29T02:10:32.903Z,31.50
2023-04-29T02:13:02.491Z,31.60
2023-04-29T02:15:31.279Z,31.60
2023-04-29T02:18:00.159Z,31.70
2023-04-29T02:20:29.061Z,31.70
2023-04-29T02:22:57.885Z,31.80
2023-04-29T02:25:26.561Z,31.90
2023-04-29T02:27:55.267Z,31.90
2023-04-29T02:30:23.992Z,32.00
2023-04-29T02:32:54.050Z,32.20
2023-04-29T02:35:22.970Z,32.30
2023-04-29T02:37:51.655Z,32.30
2023-04-29T02:40:20.398Z,32.40
2023-04-29T02:42:49.141Z,32.50
2023-04-29T02:45:18.334Z,32.50
2023-04-29T02:47:47.068Z,32.60
2023-04-29T02:50:15.826Z,32.60
2023-04-29T02:52:44.432Z,32.60
2023-04-29T02:55:13.050Z,32.80
2023-04-29T02:57:42.179Z,32.80
2023-04-29T03:00:11.539Z,33.00
2023-04-29T03:02:40.271Z,33.00
2023-04-29T03:05:09.333Z,33.10
2023-04-29T03:07:38.123Z,33.20
2023-04-29T03:10:07.514Z,33.30
2023-04-29T03:12:36.304Z,33.30
2023-04-29T03:15:06.173Z,33.40
2023-04-29T03:17:35.677Z,33.40
2023-04-29T03:20:05.815Z,33.50
2023-04-29T03:22:34.768Z,33.50
2023-04-29T03:25:03.604Z,33.60
2023-04-29T03:27:32.233Z,33.70
2023-04-29T03:30:01.046Z,33.80
2023-04-29T03:32:29.730Z,33.80
2023-04-29T03:34:58.622Z,33.90
2023-04-29T03:37:27.374Z,34.00
2023-04-29T03:39:56.125Z,34.00
2023-04-29T03:42:24.746Z,34.10
2023-04-29T03:44:53.342Z,34.10
2023-04-29T03:47:21.996Z,34.10
2023-04-29T03:49:50.996Z,34.10
2023-04-29T03:52:19.882Z,34.20
2023-04-29T03:54:48.477Z,34.30
2023-04-29T03:57:17.067Z,34.30
2023-04-29T03:59:46.518Z,34.40
2023-04-29T04:02:15.230Z,34.50
2023-04-29T04:04:44.330Z,34.70
2023-04-29T04:07:13.250Z,34.80
2023-04-29T04:09:42.087Z,34.90
2023-04-29T04:12:10.740Z,34.90
2023-04-29T04:14:39.402Z,34.90
2023-04-29T04:17:08.633Z,35.00
2023-04-29T04:19:37.406Z,35.10
2023-04-29T04:22:06.378Z,35.20
2023-04-29T04:24:35.041Z,35.20
2023-04-29T04:27:03.638Z,35.20
2023-04-29T04:29:32.237Z,35.30
2023-04-29T04:32:01.166Z,35.30
2023-04-29T04:34:30.088Z,35.30
2023-04-29T04:36:58.839Z,35.30
2023-04-29T04:39:27.903Z,35.30
2023-04-29T04:41:56.533Z,35.30
2023-04-29T04:44:25.283Z,35.30
2023-04-29T04:46:53.909Z,35.40
2023-04-29T04:49:22.619Z,35.50
2023-04-29T04:51:51.414Z,35.60
2023-04-29T04:54:20.159Z,35.50
2023-04-29T04:56:49.475Z,35.60
2023-04-29T04:59:18.151Z,35.70
2023-04-29T05:01:47.138Z,35.70
2023-04-29T05:04:16.771Z,35.70
2023-04-29T05:06:47.714Z,35.80
2023-04-29T05:09:16.588Z,35.80
2023-04-29T05:11:45.225Z,35.80
2023-04-29T05:14:13.937Z,35.80
2023-04-29T05:16:42.689Z,35.80
2023-04-29T05:19:11.412Z,35.80
2023-04-29T05:21:40.102Z,35.90
2023-04-29T05:24:09.459Z,36.00
2023-04-29T05:26:39.138Z,36.00
2023-04-29T05:29:07.897Z,36.10
2023-04-29T05:31:36.618Z,36.20
2023-04-29T05:34:05.607Z,36.30
2023-04-29T05:36:34.258Z,36.30
2023-04-29T05:39:02.870Z,36.20
2023-04-29T05:41:31.507Z,36.30
2023-04-29T05:44:00.150Z,36.30
2023-04-29T05:46:28.820Z,36.30
2023-04-29T05:48:57.445Z,36.30
2023-04-29T05:51:26.186Z,36.40
2023-04-29T05:53:55.106Z,36.30
2023-04-29T05:56:24.434Z,36.40
2023-04-29T05:58:53.129Z,36.30
2023-04-29T06:01:21.718Z,36.40
2023-04-29T06:03:50.637Z,36.30
2023-04-29T06:06:19.763Z,36.30
2023-04-29T06:08:48.484Z,36.40
2023-04-29T06:11:17.211Z,36.40
2023-04-29T06:13:45.820Z,36.50
2023-04-29T06:16:14.453Z,36.50
2023-04-29T06:18:43.097Z,36.60
2023-04-29T06:21:11.750Z,36.60
2023-04-29T06:23:40.385Z,36.60
2023-04-29T06:26:09.074Z,36.60
2023-04-29T06:28:38.005Z,36.60
2023-04-29T06:31:06.672Z,36.60
2023-04-29T06:33:35.659Z,36.60
2023-04-29T06:36:04.420Z,36.60
2023-04-29T06:38:33.065Z,36.60
2023-04-29T06:41:02.028Z,36.60
2023-04-29T06:43:31.007Z,36.50
2023-04-29T06:45:59.771Z,36.60
2023-04-29T06:48:29.007Z,36.60
2023-04-29T06:50:59.589Z,36.60
2023-04-29T06:53:28.288Z,36.50
2023-04-29T06:55:57.004Z,36.50
2023-04-29T06:58:25.629Z,36.50
2023-04-29T07:00:54.386Z,36.50
2023-04-29T07:03:23.876Z,36.50
2023-04-29T07:05:52.769Z,36.50
2023-04-29T07:08:21.494Z,36.50
2023-04-29T07:11:05.445Z,36.40
2023-04-29T07:13:34.310Z,36.40
2023-04-29T07:16:02.971Z,36.40
2023-04-29T07:18:31.824Z,36.30
2023-04-29T07:21:04.025Z,36.20
2023-04-29T07:23:32.683Z,36.20
2023-04-29T07:26:09.890Z,36.10
2023-04-29T07:28:38.539Z,36.10
2023-04-29T07:31:08.578Z,36.10
2023-04-29T07:33:37.640Z,36.10
2023-04-29T07:36:08.354Z,36.10
2023-04-29T07:38:37.917Z,36.20
2023-04-29T07:41:06.704Z,36.20
2023-04-29T07:43:35.479Z,36.30
2023-04-29T07:46:04.141Z,36.30
2023-04-29T07:48:32.863Z,36.30
2023-04-29T07:51:01.569Z,36.30
2023-04-29T07:53:30.392Z,36.20
2023-04-29T07:55:59.109Z,36.10
2023-04-29T07:58:30.003Z,36.00
2023-04-29T08:00:58.690Z,36.00
2023-04-29T08:03:29.290Z,36.00
2023-04-29T08:06:04.403Z,35.90
2023-04-29T08:08:33.574Z,35.90
2023-04-29T08:11:02.314Z,35.90
2023-04-29T08:13:31.048Z,35.90
2023-04-29T08:15:59.853Z,35.90
2023-04-29T08:18:28.936Z,35.90
2023-04-29T08:20:57.602Z,35.90
2023-04-29T08:23:26.392Z,36.00
2023-04-29T08:25:56.852Z,36.00
2023-04-29T08:28:25.715Z,36.00
2023-04-29T08:30:54.411Z,36.00
2023-04-29T08:33:23.463Z,36.00
2023-04-29T08:36:01.424Z,36.10
2023-04-29T08:38:30.220Z,36.10
2023-04-29T08:40:59.131Z,36.10
2023-04-29T08:43:28.394Z,36.10
2023-04-29T08:45:59.335Z,36.10
2023-04-29T08:48:29.961Z,36.10
2023-04-29T08:51:00.423Z,36.10
2023-04-29T08:53:29.174Z,36.00
2023-04-29T08:56:02.504Z,35.90
2023-04-29T08:58:35.436Z,35.90
2023-04-29T09:01:04.785Z,35.80
2023-04-29T09:03:58.070Z,35.80
2023-04-29T09:06:27.649Z,35.70
2023-04-29T09:08:56.402Z,35.70
2023-04-29T09:11:25.272Z,35.70
2023-04-29T09:13:59.486Z,35.60
2023-04-29T09:16:28.725Z,35.60
2023-04-29T09:18:58.513Z,35.60
2023-04-29T09:21:29.291Z,35.60
2023-04-29T09:24:00.925Z,35.60
2023-04-29T09:26:37.737Z,35.50
2023-04-29T09:29:11.036Z,35.50
2023-04-29T09:31:41.515Z,35.50
2023-04-29T09:34:10.299Z,35.40
2023-04-29T09:36:40.890Z,35.40
2023-04-29T09:39:13.517Z,35.30
2023-04-29T09:41:44.817Z,35.30
2023-04-29T09:44:13.496Z,35.20
2023-04-29T09:46:42.225Z,35.20
2023-04-29T09:49:32.291Z,35.20
2023-04-29T09:52:03.047Z,35.10
2023-04-29T09:54:33.673Z,35.10
2023-04-29T09:57:07.388Z,35.10
2023-04-29T09:59:38.580Z,35.10
2023-04-29T10:02:16.491Z,35.10
2023-04-29T10:04:48.153Z,35.10
2023-04-29T10:07:18.408Z,35.10
2023-04-29T10:09:48.925Z,35.10
2023-04-29T10:12:19.599Z,35.10
2023-04-29T10:15:14.825Z,35.00
2023-04-29T10:18:04.510Z,35.00
2023-04-29T10:20:34.134Z,35.00
2023-04-29T10:23:04.465Z,34.90
2023-04-29T10:25:34.941Z,34.90
2023-04-29T10:28:05.955Z,34.80
2023-04-29T10:30:35.299Z,34.80
2023-04-29T10:33:05.421Z,34.70
2023-04-29T10:35:34.764Z,34.70
2023-04-29T10:38:10.171Z,34.70
2023-04-29T10:40:46.676Z,34.60
2023-04-29T10:43:16.193Z,34.60
2023-04-29T10:45:44.969Z,34.50
2023-04-29T10:48:14.924Z,34.50
2023-04-29T10:50:51.989Z,34.50
2023-04-29T10:53:21.722Z,34.40
2023-04-29T10:55:59.462Z,34.30
2023-04-29T10:58:47.288Z,34.40
2023-04-29T11:01:17.996Z,34.30
2023-04-29T11:03:51.181Z,34.30
2023-04-29T11:06:19.955Z,34.20
2023-04-29T11:08:49.667Z,34.30
2023-04-29T11:11:18.364Z,34.20
2023-04-29T11:13:48.960Z,34.20
2023-04-29T11:16:17.706Z,34.20
2023-04-29T11:19:07.612Z,34.10
2023-04-29T11:21:38.272Z,34.00
2023-04-29T11:24:08.178Z,34.00
2023-04-29T11:26:37.525Z,33.90
2023-04-29T11:29:11.498Z,33.90
2023-04-29T11:31:40.487Z,33.80
2023-04-29T11:34:09.258Z,33.80
2023-04-29T11:36:38.137Z,33.80
2023-04-29T11:39:06.945Z,33.80
2023-04-29T11:41:36.755Z,33.80
2023-04-29T11:44:07.729Z,33.80
2023-04-29T11:46:36.528Z,33.80
2023-04-29T11:49:05.364Z,33.70
2023-04-29T11:51:34.210Z,33.70
2023-04-29T11:54:02.970Z,33.70
2023-04-29T11:56:31.795Z,33.70
2023-04-29T11:59:02.242Z,33.70
2023-04-29T12:01:31.049Z,33.70
2023-04-29T12:04:01.072Z,33.70
2023-04-29T12:06:31.173Z,33.60
2023-04-29T12:09:02.016Z,33.60
2023-04-29T12:11:30.711Z,33.60
2023-04-29T12:14:02.044Z,33.50
2023-04-29T12:16:31.380Z,33.40
2023-04-29T12:19:01.629Z,33.40
2023-04-29T12:21:30.384Z,33.40
2023-04-29T12:24:02.342Z,33.30
2023-04-29T12:26:33.011Z,33.20
2023-04-29T12:29:01.740Z,33.10
2023-04-29T12:31:37.801Z,33.10
2023-04-29T12:34:08.424Z,33.00
2023-04-29T12:36:38.804Z,32.90
2023-04-29T12:39:11.263Z,32.90
2023-04-29T12:41:42.792Z,32.90
2023-04-29T12:44:11.985Z,32.80
2023-04-29T12:46:42.336Z,32.80
2023-04-29T12:49:11.081Z,32.80
2023-04-29T12:51:39.702Z,32.70
2023-04-29T12:54:08.604Z,32.70
2023-04-29T12:56:37.674Z,32.70
2023-04-29T12:59:08.726Z,32.60
2023-04-29T13:01:38.318Z,32.60
2023-04-29T13:04:09.796Z,32.60
2023-04-29T13:06:40.540Z,32.50
2023-04-29T13:09:18.568Z,32.40
2023-04-29T13:11:48.261Z,32.40
2023-04-29T13:14:17.861Z,32.40
2023-04-29T13:16:47.143Z,32.30
2023-04-29T13:19:32.108Z,32.30
2023-04-29T13:22:04.490Z,32.30
2023-04-29T13:24:34.146Z,32.20
2023-04-29T13:27:03.993Z,32.20
2023-04-29T13:29:32.952Z,32.20
2023-04-29T13:32:01.854Z,32.20
2023-04-29T13:34:30.551Z,32.20
2023-04-29T13:36:59.218Z,32.10
2023-04-29T13:39:27.825Z,32.10
2023-04-29T13:41:58.926Z,32.10
2023-04-29T13:44:35.709Z,32.10
2023-04-29T13:47:08.355Z,32.10
2023-04-29T13:50:09.929Z,32.00
2023-04-29T13:53:10.471Z,32.00
2023-04-29T13:56:01.692Z,32.00
2023-04-29T14:00:55.104Z,31.90
2023-04-29T14:03:24.129Z,31.90
2023-04-29T14:05:53.372Z,31.80
2023-04-29T14:08:22.065Z,31.80
2023-04-29T14:10:50.813Z,31.80
2023-04-29T14:13:19.523Z,31.70
2023-04-29T14:15:48.466Z,31.70
2023-04-29T14:18:17.245Z,31.60
2023-04-29T14:20:46.064Z,31.60
2023-04-29T14:23:14.715Z,31.50
2023-04-29T14:25:43.595Z,31.50
2023-04-29T14:28:12.408Z,31.40
2023-04-29T14:30:42.568Z,31.40
2023-04-29T14:33:11.799Z,31.40
2023-04-29T14:35:40.482Z,31.40
2023-04-29T14:38:09.589Z,31.40
2023-04-29T14:40:40.094Z,31.30
2023-04-29T14:43:08.895Z,31.30
2023-04-29T14:45:38.579Z,31.30
2023-04-29T14:48:07.349Z,31.20
2023-04-29T14:50:35.967Z,31.20
2023-04-29T14:53:05.245Z,31.10
2023-04-29T14:55:34.078Z,31.10
2023-04-29T14:58:05.859Z,31.10
2023-04-29T15:00:34.484Z,31.10
2023-04-29T15:03:04.110Z,31.00
2023-04-29T15:05:32.882Z,31.00
2023-04-29T15:08:02.581Z,30.90
2023-04-29T15:10:31.939Z,30.90
2023-04-29T15:13:00.585Z,30.90
2023-04-29T15:15:29.851Z,30.90
2023-04-29T15:17:58.482Z,30.80
2023-04-29T15:20:27.331Z,30.80
2023-04-29T15:22:56.054Z,30.80
2023-04-29T15:25:26.594Z,30.80
2023-04-29T15:27:56.747Z,30.80
2023-04-29T15:30:25.449Z,30.80
2023-04-29T15:32:54.698Z,30.80
2023-04-29T15:35:23.707Z,30.80
2023-04-29T15:37:52.377Z,30.70
2023-04-29T15:40:21.175Z,30.70
2023-04-29T15:42:49.775Z,30.70
2023-04-29T15:45:18.480Z,30.60
2023-04-29T15:47:47.849Z,30.60
2023-04-29T15:50:16.491Z,30.60
2023-04-29T15:52:45.155Z,30.60
2023-04-29T15:55:13.904Z,30.60
2023-04-29T15:57:43.635Z,30.60
2023-04-29T16:00:13.434Z,30.50
2023-04-29T16:02:42.081Z,30.50
2023-04-29T16:05:11.004Z,30.40
2023-04-29T16:07:39.664Z,30.40
2023-04-29T16:10:08.659Z,30.40
2023-04-29T16:12:37.289Z,30.40
2023-04-29T16:15:07.154Z,30.40
2023-04-29T16:17:35.876Z,30.40
2023-04-29T16:20:04.952Z,30.40
2023-04-29T16:22:33.600Z,30.40
2023-04-29T16:25:02.676Z,30.30
2023-04-29T16:27:31.717Z,30.10
2023-04-29T16:30:00.847Z,30.00
2023-04-29T16:32:29.997Z,29.80
2023-04-29T16:35:00.830Z,29.60
2023-04-29T16:37:30.267Z,29.40
2023-04-29T16:39:59.239Z,29.30
2023-04-29T16:42:28.044Z,29.20
2023-04-29T16:44:56.877Z,29.20
2023-04-29T16:47:26.430Z,29.10
2023-04-29T16:49:56.347Z,28.90
2023-04-29T16:52:25.216Z,28.70
2023-04-29T16:54:54.151Z,28.60
2023-04-29T16:57:23.060Z,28.50
2023-04-29T17:01:13.081Z,28.40
2023-04-29T17:03:43.049Z,28.20
2023-04-29T17:06:12.327Z,27.90
2023-04-29T17:08:41.406Z,27.60
2023-04-29T17:11:10.101Z,27.50
2023-04-29T17:13:38.793Z,27.30
2023-04-29T17:16:08.555Z,27.30
2023-04-29T17:18:38.360Z,27.20
2023-04-29T17:21:07.162Z,27.30
2023-04-29T17:23:36.257Z,27.40
2023-04-29T17:26:06.099Z,27.50
2023-04-29T17:28:34.766Z,27.60
2023-04-29T17:31:03.433Z,27.70
2023-04-29T17:33:36.247Z,27.70
2023-04-29T17:36:06.534Z,27.80
2023-04-29T17:38:35.284Z,27.80
2023-04-29T17:41:04.610Z,27.80
2023-04-29T17:43:34.718Z,27.80
2023-04-29T17:46:03.374Z,27.80
2023-04-29T17:48:33.148Z,27.70
2023-04-29T17:51:01.863Z,27.60
2023-04-29T17:53:30.666Z,27.60
2023-04-29T17:56:00.265Z,27.50
2023-04-29T17:58:29.824Z,27.50
2023-04-29T18:00:58.708Z,27.40
2023-04-29T18:03:28.214Z,27.30
2023-04-29T18:05:56.967Z,27.20
2023-04-29T18:08:25.674Z,27.10
2023-04-29T18:10:55.444Z,27.10
2023-04-29T18:13:26.557Z,27.10
2023-04-29T18:15:56.542Z,27.10
2023-04-29T18:18:25.351Z,27.10
2023-04-29T18:20:54.016Z,27.20
2023-04-29T18:23:23.577Z,27.20
2023-04-29T18:25:52.219Z,27.10
2023-04-29T18:28:25.334Z,27.00
2023-04-29T18:30:54.520Z,27.00
2023-04-29T18:33:24.214Z,26.90
2023-04-29T18:35:53.026Z,26.80
2023-04-29T18:38:22.025Z,26.80
2023-04-29T18:40:50.778Z,26.80
2023-04-29T18:43:25.234Z,26.90
2023-04-29T18:45:53.922Z,26.90
2023-04-29T18:48:33.584Z,26.90
2023-04-29T18:51:05.117Z,26.80
2023-04-29T18:56:28.507Z,26.70
2023-04-29T18:58:57.550Z,26.70
2023-04-29T19:01:26.758Z,26.60
2023-04-29T19:03:56.141Z,26.50
2023-04-29T19:06:24.804Z,26.40
2023-04-29T19:08:53.529Z,26.30
2023-04-29T19:11:23.433Z,26.30
2023-04-29T19:13:52.087Z,26.20
2023-04-29T19:16:24.132Z,26.10
2023-04-29T19:18:53.773Z,26.00
2023-04-29T19:21:23.903Z,26.00
2023-04-29T19:23:53.223Z,26.00
2023-04-29T19:26:22.160Z,26.00
2023-04-29T19:28:50.762Z,26.00
2023-04-29T19:31:19.427Z,26.00
2023-04-29T19:33:49.012Z,25.90
2023-04-29T19:36:20.729Z,26.00
2023-04-29T19:38:50.171Z,26.10
2023-04-29T19:41:21.744Z,26.20
2023-04-29T19:43:50.384Z,26.20
2023-04-29T19:46:19.059Z,26.20
2023-04-29T19:48:47.801Z,26.30
2023-04-29T19:51:16.871Z,26.30
2023-04-29T19:53:57.464Z,26.30
2023-04-29T19:56:32.038Z,26.40
2023-04-29T19:59:00.790Z,26.40
2023-04-29T20:01:29.496Z,26.50
2023-04-29T20:03:58.398Z,26.50
2023-04-29T20:06:28.085Z,26.50
2023-04-29T20:08:57.072Z,26.60
2023-04-29T20:11:25.884Z,26.60
2023-04-29T20:13:54.714Z,26.70
2023-04-29T20:16:24.511Z,26.70
2023-04-29T20:18:53.328Z,26.70
2023-04-29T20:21:22.057Z,26.80
2023-04-29T20:23:50.884Z,26.80
2023-04-29T20:26:19.946Z,26.80
2023-04-29T20:28:58.160Z,26.90
2023-04-29T20:31:27.082Z,26.80
2023-04-29T20:34:03.989Z,26.80
2023-04-29T20:36:32.914Z,26.80
2023-04-29T20:39:07.555Z,26.80
2023-04-29T20:41:36.384Z,26.80
2023-04-29T20:44:05.456Z,26.80
2023-04-29T20:46:34.176Z,26.80
2023-04-29T20:49:04.129Z,26.80
2023-04-29T20:51:33.819Z,26.90
2023-04-29T20:54:02.621Z,26.80
2023-04-29T20:56:31.911Z,26.70
2023-04-29T20:59:00.736Z,26.70
2023-04-29T21:04:11.411Z,26.60
2023-04-29T21:06:40.404Z,26.50
2023-04-29T21:09:19.512Z,26.50
2023-04-29T21:11:48.643Z,26.50
2023-04-29T21:14:17.345Z,26.50
2023-04-29T21:16:46.075Z,26.50
2023-04-29T21:19:14.874Z,26.50
2023-04-29T21:21:43.682Z,26.50
2023-04-29T21:24:21.371Z,26.60
2023-04-29T21:26:51.395Z,26.60
2023-04-29T21:29:21.147Z,26.60
2023-04-29T21:31:49.827Z,26.70
2023-04-29T21:34:18.688Z,26.70
2023-04-29T21:36:47.316Z,26.70
2023-04-29T21:39:16.044Z,26.80
2023-04-29T21:41:47.132Z,26.70
2023-04-29T21:44:16.608Z,26.70
2023-04-29T21:46:54.790Z,26.70
2023-04-29T21:49:30.672Z,26.70
2023-04-29T21:52:00.603Z,26.70
2023-04-29T21:54:34.572Z,26.70
2023-04-29T21:57:03.939Z,26.70
2023-04-29T21:59:35.697Z,26.70
2023-04-29T22:02:15.233Z,26.60
2023-04-29T22:04:43.934Z,26.60
2023-04-29T22:07:12.609Z,26.50
2023-04-29T22:09:41.357Z,26.50
2023-04-29T22:12:10.148Z,26.50
2023-04-29T22:14:38.924Z,26.50
2023-04-29T22:17:08.060Z,26.50
2023-04-29T22:19:38.324Z,26.50
2023-04-29T22:22:07.545Z,26.50
2023-04-29T22:24:36.320Z,26.50
2023-04-29T22:27:05.009Z,26.50
2023-04-29T22:29:33.749Z,26.60
2023-04-29T22:32:02.574Z,26.60
2023-04-29T22:34:31.547Z,26.60
2023-04-29T22:37:01.047Z,26.60
2023-04-29T22:39:29.741Z,26.60
2023-04-29T22:41:58.406Z,26.60
2023-04-29T22:44:27.203Z,26.60
2023-04-29T22:46:55.945Z,26.60
2023-04-29T22:49:26.603Z,26.60
2023-04-29T22:51:55.321Z,26.60
2023-04-29T22:54:23.927Z,26.60
2023-04-29T22:56:52.521Z,26.60
2023-04-29T22:59:21.969Z,26.60
2023-04-29T23:01:50.618Z,26.60
2023-04-29T23:04:30.229Z,26.50
2023-04-29T23:07:08.665Z,26.50
2023-04-29T23:09:37.462Z,26.50
2023-04-29T23:12:06.293Z,26.40
2023-04-29T23:14:34.896Z,26.30
2023-04-29T23:17:03.561Z,26.30
2023-04-29T23:19:32.165Z,26.20
2023-04-29T23:22:00.857Z,26.10
2023-04-29T23:24:29.686Z,26.00
2023-04-29T23:27:04.382Z,26.00
2023-04-29T23:29:35.287Z,26.00
2023-04-29T23:32:04.210Z,26.00
2023-04-29T23:34:32.883Z,26.00
2023-04-29T23:37:02.332Z,26.00
2023-04-29T23:39:30.963Z,26.00
2023-04-29T23:41:59.557Z,26.10
2023-04-29T23:44:32.353Z,26.10
2023-04-29T23:47:00.625Z,26.10
2023-04-29T23:49:29.627Z,26.10
2023-04-29T23:51:58.250Z,26.10
2023-04-29T23:54:26.847Z,26.00
2023-04-29T23:56:59.256Z,26.00
2023-04-29T23:59:35.437Z,25.90
